»·PEaware :: N275ND KSNA-KBUR

N275ND :: KSNA-KBUR

FLIGHT INFORMATION

Flight Status: Arrived
Operator: Privately registered:
United States
More flights under this callsign
Pilot: John A. (19135)
Aircraft: CESSNA 172 SKYHAWK
(C172)
More flights by this aircraft type
Origin: KSNA John Wayne-Orange Co
United States
Destination: KBUR Bob Hope-Burbank
United States
More flights between these airports :: More routes between these airports
Route: +SLI V23 POPPR SMO125R SMO SMO311R SILEX
File this flight plan on PilotEdge
Remarks: I-3 Rating
Altitude:
(Current/Filed)
4,000ft
Speed:
(Current/Filed)
115kts
Departed: 31-Jul-19 11:53 AM
Arrived: 31-Jul-19 12:34 PM
Distance/Time
Traveled:
40nm/0:41
Distance/Time
To Go:
Arrived

Flight Plot

Page will automatically refresh every two minutes.


Map Options




Map Legend


Flown Route
Filed Route
Departure Airport
Arrival Airport
Navaid (VOR, NDB)
Fix

Horizontal Profiles

Position Reports

Time Latitude Longitude Heading Altitude Ground
Speed
31-Jul-19 11:35 33.668086 -117.871025 221 60ft 0kts
31-Jul-19 11:36 33.668086 -117.871025 221 60ft 0kts
31-Jul-19 11:37 33.668086 -117.871025 221 60ft 0kts
31-Jul-19 11:38 33.668086 -117.871025 221 60ft 0kts
31-Jul-19 11:39 33.668086 -117.871025 221 60ft 0kts
31-Jul-19 11:40 33.668086 -117.871025 221 60ft 0kts
31-Jul-19 11:41 33.668086 -117.871025 221 60ft 0kts
31-Jul-19 11:42 33.668079 -117.871233 297 60ft 0kts
31-Jul-19 11:43 33.668540 -117.871535 27 60ft 12kts
31-Jul-19 11:44 33.673947 -117.867137 18 60ft 20kts
31-Jul-19 11:45 33.676443 -117.865575 20 60ft 10kts
31-Jul-19 11:46 33.679938 -117.863548 302 60ft 0kts
31-Jul-19 11:47 33.679938 -117.863548 302 60ft 0kts
31-Jul-19 11:48 33.679938 -117.863548 302 60ft 0kts
31-Jul-19 11:49 33.679938 -117.863548 302 60ft 0kts
31-Jul-19 11:50 33.679938 -117.863548 302 60ft 0kts
31-Jul-19 11:51 33.679962 -117.863596 299 60ft 6kts
31-Jul-19 11:52 33.671200 -117.871146 230 400ft 76kts
31-Jul-19 11:53 33.655969 -117.889578 226 1406ft 76kts
31-Jul-19 11:54 33.640076 -117.912633 230 2061ft 107kts
31-Jul-19 11:55 33.618921 -117.946091 229 1919ft 131kts
31-Jul-19 11:56 33.601974 -117.971847 230 2897ft 90kts
31-Jul-19 11:57 33.585234 -117.989882 216 3748ft 84kts
31-Jul-19 11:59 33.590357 -118.012485 329 4186ft 110kts
31-Jul-19 12:00 33.618523 -118.032183 332 3969ft 115kts
31-Jul-19 12:01 33.644446 -118.051030 318 3897ft 110kts
31-Jul-19 12:02 33.668103 -118.076273 321 4007ft 125kts
31-Jul-19 12:03 33.696556 -118.102241 319 3954ft 132kts
31-Jul-19 12:04 33.724052 -118.130919 320 3963ft 133kts
31-Jul-19 12:05 33.751651 -118.160052 317 3976ft 132kts
31-Jul-19 12:06 33.779711 -118.185832 332 3909ft 133kts
31-Jul-19 12:07 33.804210 -118.212659 317 3887ft 120kts
31-Jul-19 12:08 33.824704 -118.241850 285 3908ft 121kts
31-Jul-19 12:09 33.837586 -118.279342 302 4057ft 118kts
31-Jul-19 12:10 33.864868 -118.304995 335 3895ft 131kts
31-Jul-19 12:11 33.887503 -118.335918 302 4066ft 111kts
31-Jul-19 12:12 33.910230 -118.366548 318 4054ft 118kts
31-Jul-19 12:13 33.938085 -118.391683 325 3949ft 125kts
31-Jul-19 12:14 33.966258 -118.416771 321 3932ft 123kts
31-Jul-19 12:15 33.993249 -118.442528 318 4069ft 114kts
31-Jul-19 12:16 34.018669 -118.471067 310 3930ft 129kts
31-Jul-19 12:17 34.041346 -118.503369 322 3901ft 130kts
31-Jul-19 12:17 34.067435 -118.518610 318 4008ft 117kts
31-Jul-19 12:19 34.091852 -118.556728 312 3997ft 128kts
31-Jul-19 12:20 34.110586 -118.590957 293 3986ft 130kts
31-Jul-19 12:20 34.127222 -118.621066 307 3896ft 130kts
31-Jul-19 12:21 34.147756 -118.654146 301 3917ft 126kts
31-Jul-19 12:23 34.170305 -118.694887 316 3899ft 129kts
31-Jul-19 12:23 34.189902 -118.680885 68 4014ft 123kts
31-Jul-19 12:24 34.197001 -118.640307 91 3952ft 117kts
31-Jul-19 12:26 34.199915 -118.596932 80 3966ft 109kts
31-Jul-19 12:26 34.198983 -118.564907 89 3921ft 114kts
31-Jul-19 12:27 34.199417 -118.527707 89 3602ft 99kts
31-Jul-19 12:28 34.197796 -118.491757 101 2956ft 114kts
31-Jul-19 12:29 34.195631 -118.461654 86 2122ft 81kts
31-Jul-19 12:30 34.197848 -118.433331 100 1700ft 87kts
31-Jul-19 12:31 34.198171 -118.404403 91 1411ft 89kts
31-Jul-19 12:32 34.197877 -118.377729 99 980ft 76kts
31-Jul-19 12:33 34.198055 -118.360260 21 780ft 17kts
31-Jul-19 12:34 34.198831 -118.360146 0 780ft 3kts
31-Jul-19 12:35 34.200670 -118.359495 268 780ft 19kts

Navigation Log

Ident Type
Flight plan parsing failed, navigation log unavailable